sensor_id;sensor_type;location;lat;lon;timestamp;P1;durP1;ratioP1;P2;durP2;ratioP2
6947;SDS011;3513;47.664;9.162;2023-09-07T00:00:35;9.97;;;6.17;;
6947;SDS011;3513;47.664;9.162;2023-09-07T00:03:01;10.37;;;7.17;;
6947;SDS011;3513;47.664;9.162;2023-09-07T00:05:27;8.63;;;7.03;;
6947;SDS011;3513;47.664;9.162;2023-09-07T00:07:52;9.67;;;6.50;;
6947;SDS011;3513;47.664;9.162;2023-09-07T00:10:18;12.10;;;6.83;;
6947;SDS011;3513;47.664;9.162;2023-09-07T00:12:43;11.33;;;7.23;;
6947;SDS011;3513;47.664;9.162;2023-09-07T00:15:09;7.80;;;6.50;;
6947;SDS011;3513;47.664;9.162;2023-09-07T00:17:35;11.93;;;7.90;;
6947;SDS011;3513;47.664;9.162;2023-09-07T00:20:02;7.33;;;6.13;;
6947;SDS011;3513;47.664;9.162;2023-09-07T00:22:39;12.07;;;7.40;;
6947;SDS011;3513;47.664;9.162;2023-09-07T00:25:05;12.63;;;8.63;;
6947;SDS011;3513;47.664;9.162;2023-09-07T00:27:34;12.97;;;6.93;;
6947;SDS011;3513;47.664;9.162;2023-09-07T00:30:00;10.80;;;6.43;;
6947;SDS011;3513;47.664;9.162;2023-09-07T00:32:26;7.70;;;6.73;;
6947;SDS011;3513;47.664;9.162;2023-09-07T00:34:51;10.00;;;7.10;;
6947;SDS011;3513;47.664;9.162;2023-09-07T00:37:17;10.70;;;7.10;;
6947;SDS011;3513;47.664;9.162;2023-09-07T00:39:42;11.47;;;7.17;;
6947;SDS011;3513;47.664;9.162;2023-09-07T00:42:08;7.50;;;6.73;;
6947;SDS011;3513;47.664;9.162;2023-09-07T00:44:33;11.37;;;7.73;;
6947;SDS011;3513;47.664;9.162;2023-09-07T00:46:59;9.87;;;7.50;;
6947;SDS011;3513;47.664;9.162;2023-09-07T00:49:25;10.10;;;7.83;;
6947;SDS011;3513;47.664;9.162;2023-09-07T00:51:51;16.83;;;7.80;;
6947;SDS011;3513;47.664;9.162;2023-09-07T00:54:18;14.17;;;8.00;;
6947;SDS011;3513;47.664;9.162;2023-09-07T00:56:44;10.97;;;8.17;;
6947;SDS011;3513;47.664;9.162;2023-09-07T00:59:10;11.60;;;7.53;;
6947;SDS011;3513;47.664;9.162;2023-09-07T01:01:36;17.13;;;6.50;;
6947;SDS011;3513;47.664;9.162;2023-09-07T01:04:02;11.70;;;7.80;;
6947;SDS011;3513;47.664;9.162;2023-09-07T01:06:37;11.53;;;7.90;;
6947;SDS011;3513;47.664;9.162;2023-09-07T01:09:14;24.17;;;8.93;;
6947;SDS011;3513;47.664;9.162;2023-09-07T01:11:44;11.00;;;6.80;;
6947;SDS011;3513;47.664;9.162;2023-09-07T01:14:09;10.93;;;7.60;;
6947;SDS011;3513;47.664;9.162;2023-09-07T01:16:35;14.80;;;7.57;;
6947;SDS011;3513;47.664;9.162;2023-09-07T01:19:03;8.87;;;7.53;;
6947;SDS011;3513;47.664;9.162;2023-09-07T01:21:36;11.30;;;7.77;;
6947;SDS011;3513;47.664;9.162;2023-09-07T01:24:06;11.40;;;7.17;;
6947;SDS011;3513;47.664;9.162;2023-09-07T01:26:34;12.60;;;7.63;;
6947;SDS011;3513;47.664;9.162;2023-09-07T01:29:03;6.80;;;6.03;;
6947;SDS011;3513;47.664;9.162;2023-09-07T01:31:36;11.57;;;7.70;;
6947;SDS011;3513;47.664;9.162;2023-09-07T01:34:03;10.20;;;6.87;;
6947;SDS011;3513;47.664;9.162;2023-09-07T01:36:29;12.40;;;7.03;;
6947;SDS011;3513;47.664;9.162;2023-09-07T01:38:55;11.00;;;7.53;;
6947;SDS011;3513;47.664;9.162;2023-09-07T01:41:20;11.30;;;8.60;;
6947;SDS011;3513;47.664;9.162;2023-09-07T01:43:46;8.63;;;7.10;;
6947;SDS011;3513;47.664;9.162;2023-09-07T01:46:12;8.67;;;7.60;;
6947;SDS011;3513;47.664;9.162;2023-09-07T01:48:37;11.20;;;7.97;;
6947;SDS011;3513;47.664;9.162;2023-09-07T01:51:03;14.90;;;8.53;;
6947;SDS011;3513;47.664;9.162;2023-09-07T01:53:28;20.80;;;7.90;;
6947;SDS011;3513;47.664;9.162;2023-09-07T01:55:54;13.17;;;9.13;;
6947;SDS011;3513;47.664;9.162;2023-09-07T01:58:24;11.80;;;8.03;;
6947;SDS011;3513;47.664;9.162;2023-09-07T02:00:50;13.03;;;9.50;;
6947;SDS011;3513;47.664;9.162;2023-09-07T02:03:17;10.37;;;8.70;;
6947;SDS011;3513;47.664;9.162;2023-09-07T02:05:43;17.57;;;10.00;;
6947;SDS011;3513;47.664;9.162;2023-09-07T02:08:10;16.87;;;8.63;;
6947;SDS011;3513;47.664;9.162;2023-09-07T02:10:36;12.10;;;8.53;;
6947;SDS011;3513;47.664;9.162;2023-09-07T02:13:02;9.60;;;7.80;;
6947;SDS011;3513;47.664;9.162;2023-09-07T02:15:28;16.00;;;8.27;;
6947;SDS011;3513;47.664;9.162;2023-09-07T02:17:54;8.87;;;7.53;;
6947;SDS011;3513;47.664;9.162;2023-09-07T02:20:20;11.93;;;9.17;;
6947;SDS011;3513;47.664;9.162;2023-09-07T02:22:46;10.73;;;8.60;;
6947;SDS011;3513;47.664;9.162;2023-09-07T02:25:11;12.47;;;8.80;;
6947;SDS011;3513;47.664;9.162;2023-09-07T02:27:37;13.67;;;8.53;;
6947;SDS011;3513;47.664;9.162;2023-09-07T02:30:03;15.20;;;8.90;;
6947;SDS011;3513;47.664;9.162;2023-09-07T02:32:30;17.80;;;9.43;;
6947;SDS011;3513;47.664;9.162;2023-09-07T02:34:56;17.83;;;8.97;;
6947;SDS011;3513;47.664;9.162;2023-09-07T02:37:22;15.73;;;7.83;;
6947;SDS011;3513;47.664;9.162;2023-09-07T02:39:48;18.33;;;9.43;;
6947;SDS011;3513;47.664;9.162;2023-09-07T02:42:14;13.43;;;9.50;;
6947;SDS011;3513;47.664;9.162;2023-09-07T02:44:39;14.00;;;9.63;;
6947;SDS011;3513;47.664;9.162;2023-09-07T02:47:05;10.97;;;8.83;;
6947;SDS011;3513;47.664;9.162;2023-09-07T02:49:30;12.13;;;8.60;;
6947;SDS011;3513;47.664;9.162;2023-09-07T02:51:56;18.23;;;9.57;;
6947;SDS011;3513;47.664;9.162;2023-09-07T02:54:22;10.17;;;8.17;;
6947;SDS011;3513;47.664;9.162;2023-09-07T02:56:48;12.90;;;8.77;;
6947;SDS011;3513;47.664;9.162;2023-09-07T02:59:14;18.03;;;7.93;;
6947;SDS011;3513;47.664;9.162;2023-09-07T03:01:40;14.30;;;8.70;;
6947;SDS011;3513;47.664;9.162;2023-09-07T03:04:05;12.70;;;7.70;;
6947;SDS011;3513;47.664;9.162;2023-09-07T03:06:32;14.53;;;8.20;;
6947;SDS011;3513;47.664;9.162;2023-09-07T03:08:58;14.20;;;9.57;;
6947;SDS011;3513;47.664;9.162;2023-09-07T03:11:24;30.97;;;16.07;;
6947;SDS011;3513;47.664;9.162;2023-09-07T03:13:49;28.27;;;16.10;;
6947;SDS011;3513;47.664;9.162;2023-09-07T03:16:15;31.50;;;17.33;;
6947;SDS011;3513;47.664;9.162;2023-09-07T03:18:40;33.53;;;19.07;;
6947;SDS011;3513;47.664;9.162;2023-09-07T03:21:06;28.20;;;15.90;;
6947;SDS011;3513;47.664;9.162;2023-09-07T03:23:32;22.33;;;11.97;;
6947;SDS011;3513;47.664;9.162;2023-09-07T03:25:58;18.37;;;12.27;;
6947;SDS011;3513;47.664;9.162;2023-09-07T03:28:24;12.57;;;10.00;;
6947;SDS011;3513;47.664;9.162;2023-09-07T03:30:51;15.97;;;10.30;;
6947;SDS011;3513;47.664;9.162;2023-09-07T03:33:17;22.53;;;11.67;;
6947;SDS011;3513;47.664;9.162;2023-09-07T03:35:42;17.50;;;9.93;;
6947;SDS011;3513;47.664;9.162;2023-09-07T03:38:08;20.90;;;9.90;;
6947;SDS011;3513;47.664;9.162;2023-09-07T03:40:34;18.23;;;9.40;;
6947;SDS011;3513;47.664;9.162;2023-09-07T03:42:59;13.10;;;9.77;;
6947;SDS011;3513;47.664;9.162;2023-09-07T03:45:25;15.13;;;9.90;;
6947;SDS011;3513;47.664;9.162;2023-09-07T03:47:51;13.13;;;9.30;;
6947;SDS011;3513;47.664;9.162;2023-09-07T03:50:16;13.23;;;9.40;;
6947;SDS011;3513;47.664;9.162;2023-09-07T03:52:42;14.33;;;10.27;;
6947;SDS011;3513;47.664;9.162;2023-09-07T03:55:08;14.77;;;10.23;;
6947;SDS011;3513;47.664;9.162;2023-09-07T03:57:33;16.67;;;10.83;;
6947;SDS011;3513;47.664;9.162;2023-09-07T03:59:59;15.97;;;9.60;;
6947;SDS011;3513;47.664;9.162;2023-09-07T04:02:25;14.77;;;10.90;;
6947;SDS011;3513;47.664;9.162;2023-09-07T04:04:51;17.70;;;11.43;;
6947;SDS011;3513;47.664;9.162;2023-09-07T04:07:18;13.40;;;9.80;;
6947;SDS011;3513;47.664;9.162;2023-09-07T04:09:44;15.23;;;9.57;;
6947;SDS011;3513;47.664;9.162;2023-09-07T04:12:10;14.10;;;9.30;;
6947;SDS011;3513;47.664;9.162;2023-09-07T04:14:36;13.17;;;8.70;;
6947;SDS011;3513;47.664;9.162;2023-09-07T04:17:03;11.77;;;9.63;;
6947;SDS011;3513;47.664;9.162;2023-09-07T04:19:29;12.53;;;10.20;;
6947;SDS011;3513;47.664;9.162;2023-09-07T04:21:56;16.83;;;10.53;;
6947;SDS011;3513;47.664;9.162;2023-09-07T04:24:22;11.37;;;9.47;;
6947;SDS011;3513;47.664;9.162;2023-09-07T04:26:47;17.00;;;10.10;;
6947;SDS011;3513;47.664;9.162;2023-09-07T04:29:14;14.20;;;10.13;;
6947;SDS011;3513;47.664;9.162;2023-09-07T04:31:40;14.50;;;9.47;;
6947;SDS011;3513;47.664;9.162;2023-09-07T04:34:06;13.23;;;10.20;;
6947;SDS011;3513;47.664;9.162;2023-09-07T04:36:32;12.50;;;9.60;;
6947;SDS011;3513;47.664;9.162;2023-09-07T04:38:58;15.50;;;10.50;;
6947;SDS011;3513;47.664;9.162;2023-09-07T04:41:24;16.30;;;10.40;;
6947;SDS011;3513;47.664;9.162;2023-09-07T04:43:49;21.40;;;9.67;;
6947;SDS011;3513;47.664;9.162;2023-09-07T04:46:15;12.37;;;9.40;;
6947;SDS011;3513;47.664;9.162;2023-09-07T04:48:41;13.60;;;10.10;;
6947;SDS011;3513;47.664;9.162;2023-09-07T04:51:09;14.63;;;9.10;;
6947;SDS011;3513;47.664;9.162;2023-09-07T04:53:38;16.40;;;10.80;;
6947;SDS011;3513;47.664;9.162;2023-09-07T04:56:04;16.93;;;10.10;;
6947;SDS011;3513;47.664;9.162;2023-09-07T04:58:31;20.77;;;10.37;;
6947;SDS011;3513;47.664;9.162;2023-09-07T05:01:07;15.90;;;10.17;;
6947;SDS011;3513;47.664;9.162;2023-09-07T05:03:34;21.43;;;10.53;;
6947;SDS011;3513;47.664;9.162;2023-09-07T05:06:01;20.50;;;10.30;;
6947;SDS011;3513;47.664;9.162;2023-09-07T05:08:28;17.70;;;9.73;;
6947;SDS011;3513;47.664;9.162;2023-09-07T05:10:55;12.87;;;8.90;;
6947;SDS011;3513;47.664;9.162;2023-09-07T05:13:22;19.37;;;10.37;;
6947;SDS011;3513;47.664;9.162;2023-09-07T05:15:49;14.33;;;9.27;;
6947;SDS011;3513;47.664;9.162;2023-09-07T05:18:15;11.93;;;9.60;;
6947;SDS011;3513;47.664;9.162;2023-09-07T05:20:41;12.10;;;8.90;;
6947;SDS011;3513;47.664;9.162;2023-09-07T05:23:09;19.00;;;8.90;;
6947;SDS011;3513;47.664;9.162;2023-09-07T05:25:47;19.00;;;10.07;;
6947;SDS011;3513;47.664;9.162;2023-09-07T05:28:15;15.07;;;9.10;;
6947;SDS011;3513;47.664;9.162;2023-09-07T05:30:41;15.80;;;9.67;;
6947;SDS011;3513;47.664;9.162;2023-09-07T05:33:11;11.90;;;8.60;;
6947;SDS011;3513;47.664;9.162;2023-09-07T05:35:39;16.20;;;9.80;;
6947;SDS011;3513;47.664;9.162;2023-09-07T05:38:05;13.10;;;9.10;;
6947;SDS011;3513;47.664;9.162;2023-09-07T05:40:38;12.40;;;9.23;;
6947;SDS011;3513;47.664;9.162;2023-09-07T05:43:07;19.53;;;10.00;;
6947;SDS011;3513;47.664;9.162;2023-09-07T05:45:35;12.97;;;10.40;;
6947;SDS011;3513;47.664;9.162;2023-09-07T05:48:03;12.63;;;9.30;;
6947;SDS011;3513;47.664;9.162;2023-09-07T05:50:29;12.93;;;10.80;;
6947;SDS011;3513;47.664;9.162;2023-09-07T05:52:55;17.20;;;10.67;;
6947;SDS011;3513;47.664;9.162;2023-09-07T05:55:20;14.17;;;9.90;;
6947;SDS011;3513;47.664;9.162;2023-09-07T05:57:46;26.30;;;10.80;;
6947;SDS011;3513;47.664;9.162;2023-09-07T06:00:13;15.27;;;11.13;;
6947;SDS011;3513;47.664;9.162;2023-09-07T06:02:41;13.50;;;10.03;;
6947;SDS011;3513;47.664;9.162;2023-09-07T06:05:08;18.30;;;11.33;;
6947;SDS011;3513;47.664;9.162;2023-09-07T06:07:35;18.73;;;11.50;;
6947;SDS011;3513;47.664;9.162;2023-09-07T06:10:01;14.13;;;10.37;;
6947;SDS011;3513;47.664;9.162;2023-09-07T06:12:27;21.10;;;10.93;;
6947;SDS011;3513;47.664;9.162;2023-09-07T06:14:52;18.77;;;11.00;;
6947;SDS011;3513;47.664;9.162;2023-09-07T06:17:18;17.60;;;11.50;;
6947;SDS011;3513;47.664;9.162;2023-09-07T06:19:44;19.17;;;11.20;;
6947;SDS011;3513;47.664;9.162;2023-09-07T06:22:10;23.00;;;10.20;;
6947;SDS011;3513;47.664;9.162;2023-09-07T06:24:35;23.23;;;11.67;;
6947;SDS011;3513;47.664;9.162;2023-09-07T06:27:01;17.97;;;11.63;;
6947;SDS011;3513;47.664;9.162;2023-09-07T06:29:27;18.40;;;12.20;;
6947;SDS011;3513;47.664;9.162;2023-09-07T06:31:52;26.27;;;10.93;;
6947;SDS011;3513;47.664;9.162;2023-09-07T06:34:18;17.07;;;11.40;;
6947;SDS011;3513;47.664;9.162;2023-09-07T06:36:43;17.73;;;10.60;;
6947;SDS011;3513;47.664;9.162;2023-09-07T06:39:09;16.73;;;11.53;;
6947;SDS011;3513;47.664;9.162;2023-09-07T06:41:35;14.43;;;9.90;;
6947;SDS011;3513;47.664;9.162;2023-09-07T06:44:00;12.30;;;10.87;;
6947;SDS011;3513;47.664;9.162;2023-09-07T06:46:26;17.43;;;10.77;;
6947;SDS011;3513;47.664;9.162;2023-09-07T06:48:52;13.47;;;9.53;;
6947;SDS011;3513;47.664;9.162;2023-09-07T06:51:17;12.00;;;7.90;;
6947;SDS011;3513;47.664;9.162;2023-09-07T06:53:43;11.37;;;8.37;;
6947;SDS011;3513;47.664;9.162;2023-09-07T06:56:09;14.27;;;8.43;;
6947;SDS011;3513;47.664;9.162;2023-09-07T06:58:35;14.27;;;8.83;;
6947;SDS011;3513;47.664;9.162;2023-09-07T07:01:01;16.53;;;9.30;;
6947;SDS011;3513;47.664;9.162;2023-09-07T07:03:28;60.90;;;10.30;;
6947;SDS011;3513;47.664;9.162;2023-09-07T07:05:55;13.93;;;8.97;;
6947;SDS011;3513;47.664;9.162;2023-09-07T07:08:21;16.43;;;9.37;;
6947;SDS011;3513;47.664;9.162;2023-09-07T07:10:48;16.63;;;9.10;;
6947;SDS011;3513;47.664;9.162;2023-09-07T07:13:13;14.23;;;8.73;;
6947;SDS011;3513;47.664;9.162;2023-09-07T07:15:39;15.67;;;8.97;;
6947;SDS011;3513;47.664;9.162;2023-09-07T07:18:05;11.50;;;9.20;;
6947;SDS011;3513;47.664;9.162;2023-09-07T07:20:41;11.20;;;8.50;;
6947;SDS011;3513;47.664;9.162;2023-09-07T07:23:08;13.07;;;9.10;;
6947;SDS011;3513;47.664;9.162;2023-09-07T07:25:34;12.63;;;10.20;;
6947;SDS011;3513;47.664;9.162;2023-09-07T07:28:02;17.33;;;8.80;;
6947;SDS011;3513;47.664;9.162;2023-09-07T07:30:34;17.90;;;9.00;;
6947;SDS011;3513;47.664;9.162;2023-09-07T07:33:01;12.80;;;8.70;;
6947;SDS011;3513;47.664;9.162;2023-09-07T07:35:31;12.03;;;8.33;;
6947;SDS011;3513;47.664;9.162;2023-09-07T07:38:01;12.67;;;8.67;;
6947;SDS011;3513;47.664;9.162;2023-09-07T07:40:29;15.00;;;8.30;;
6947;SDS011;3513;47.664;9.162;2023-09-07T07:42:57;16.13;;;9.07;;
6947;SDS011;3513;47.664;9.162;2023-09-07T07:45:23;14.50;;;8.97;;
6947;SDS011;3513;47.664;9.162;2023-09-07T07:47:49;11.03;;;8.73;;
6947;SDS011;3513;47.664;9.162;2023-09-07T07:50:15;13.30;;;9.10;;
6947;SDS011;3513;47.664;9.162;2023-09-07T07:52:41;19.23;;;9.83;;
6947;SDS011;3513;47.664;9.162;2023-09-07T07:55:07;11.50;;;8.27;;
6947;SDS011;3513;47.664;9.162;2023-09-07T07:57:33;10.70;;;8.33;;
6947;SDS011;3513;47.664;9.162;2023-09-07T07:59:59;16.73;;;8.37;;
6947;SDS011;3513;47.664;9.162;2023-09-07T08:02:24;13.00;;;7.40;;
6947;SDS011;3513;47.664;9.162;2023-09-07T08:04:50;13.93;;;8.07;;
6947;SDS011;3513;47.664;9.162;2023-09-07T08:07:16;12.10;;;7.20;;
6947;SDS011;3513;47.664;9.162;2023-09-07T08:09:41;10.43;;;7.53;;
6947;SDS011;3513;47.664;9.162;2023-09-07T08:12:07;12.97;;;8.23;;
6947;SDS011;3513;47.664;9.162;2023-09-07T08:14:33;17.40;;;7.80;;
6947;SDS011;3513;47.664;9.162;2023-09-07T08:16:59;12.00;;;7.63;;
6947;SDS011;3513;47.664;9.162;2023-09-07T08:19:28;16.67;;;7.63;;
6947;SDS011;3513;47.664;9.162;2023-09-07T08:21:54;16.33;;;7.97;;
6947;SDS011;3513;47.664;9.162;2023-09-07T08:24:20;22.73;;;8.67;;
6947;SDS011;3513;47.664;9.162;2023-09-07T08:26:45;10.33;;;7.93;;
6947;SDS011;3513;47.664;9.162;2023-09-07T08:29:15;9.97;;;7.43;;
6947;SDS011;3513;47.664;9.162;2023-09-07T08:31:41;11.17;;;7.10;;
6947;SDS011;3513;47.664;9.162;2023-09-07T08:34:09;15.57;;;9.17;;
6947;SDS011;3513;47.664;9.162;2023-09-07T08:36:36;14.40;;;8.80;;
6947;SDS011;3513;47.664;9.162;2023-09-07T08:39:02;18.70;;;8.40;;
6947;SDS011;3513;47.664;9.162;2023-09-07T08:41:34;16.67;;;7.90;;
6947;SDS011;3513;47.664;9.162;2023-09-07T08:44:06;20.83;;;9.43;;
6947;SDS011;3513;47.664;9.162;2023-09-07T08:46:33;16.20;;;7.60;;
6947;SDS011;3513;47.664;9.162;2023-09-07T08:48:59;10.50;;;8.77;;
6947;SDS011;3513;47.664;9.162;2023-09-07T08:51:28;15.33;;;8.00;;
6947;SDS011;3513;47.664;9.162;2023-09-07T08:53:56;12.83;;;7.87;;
6947;SDS011;3513;47.664;9.162;2023-09-07T08:56:25;19.23;;;7.73;;
6947;SDS011;3513;47.664;9.162;2023-09-07T08:58:51;10.70;;;6.80;;
6947;SDS011;3513;47.664;9.162;2023-09-07T09:01:17;10.70;;;8.83;;
6947;SDS011;3513;47.664;9.162;2023-09-07T09:03:43;15.80;;;8.77;;
6947;SDS011;3513;47.664;9.162;2023-09-07T09:06:10;14.20;;;7.67;;
6947;SDS011;3513;47.664;9.162;2023-09-07T09:08:44;10.73;;;8.30;;
6947;SDS011;3513;47.664;9.162;2023-09-07T09:11:21;17.90;;;8.07;;
6947;SDS011;3513;47.664;9.162;2023-09-07T09:13:48;21.30;;;8.17;;
6947;SDS011;3513;47.664;9.162;2023-09-07T09:16:15;21.63;;;9.90;;
6947;SDS011;3513;47.664;9.162;2023-09-07T09:18:48;10.23;;;7.00;;
6947;SDS011;3513;47.664;9.162;2023-09-07T09:21:17;11.70;;;8.27;;
6947;SDS011;3513;47.664;9.162;2023-09-07T09:23:52;11.20;;;8.07;;
6947;SDS011;3513;47.664;9.162;2023-09-07T09:26:20;12.50;;;8.30;;
6947;SDS011;3513;47.664;9.162;2023-09-07T09:28:46;14.97;;;7.83;;
6947;SDS011;3513;47.664;9.162;2023-09-07T09:31:12;17.17;;;8.37;;
6947;SDS011;3513;47.664;9.162;2023-09-07T09:33:39;8.80;;;7.20;;
6947;SDS011;3513;47.664;9.162;2023-09-07T09:36:06;12.43;;;7.43;;
6947;SDS011;3513;47.664;9.162;2023-09-07T09:38:33;7.37;;;6.10;;
6947;SDS011;3513;47.664;9.162;2023-09-07T09:40:59;14.93;;;8.37;;
6947;SDS011;3513;47.664;9.162;2023-09-07T09:43:26;12.90;;;7.33;;
6947;SDS011;3513;47.664;9.162;2023-09-07T09:45:52;9.90;;;7.10;;
6947;SDS011;3513;47.664;9.162;2023-09-07T09:48:21;13.70;;;7.00;;
6947;SDS011;3513;47.664;9.162;2023-09-07T09:50:47;15.67;;;7.40;;
6947;SDS011;3513;47.664;9.162;2023-09-07T09:53:15;9.67;;;6.80;;
6947;SDS011;3513;47.664;9.162;2023-09-07T09:55:47;7.17;;;6.20;;
6947;SDS011;3513;47.664;9.162;2023-09-07T09:58:15;12.90;;;7.50;;
6947;SDS011;3513;47.664;9.162;2023-09-07T10:00:45;10.17;;;6.67;;
6947;SDS011;3513;47.664;9.162;2023-09-07T10:03:21;12.90;;;6.97;;
6947;SDS011;3513;47.664;9.162;2023-09-07T10:05:55;10.13;;;7.27;;
6947;SDS011;3513;47.664;9.162;2023-09-07T10:08:21;9.93;;;7.60;;
6947;SDS011;3513;47.664;9.162;2023-09-07T10:10:48;11.73;;;7.17;;
6947;SDS011;3513;47.664;9.162;2023-09-07T10:13:28;16.17;;;7.47;;
6947;SDS011;3513;47.664;9.162;2023-09-07T10:16:04;8.20;;;5.87;;
6947;SDS011;3513;47.664;9.162;2023-09-07T10:18:38;7.07;;;5.97;;
6947;SDS011;3513;47.664;9.162;2023-09-07T10:21:04;8.40;;;6.13;;
6947;SDS011;3513;47.664;9.162;2023-09-07T10:23:49;8.03;;;6.47;;
6947;SDS011;3513;47.664;9.162;2023-09-07T10:26:18;10.60;;;6.63;;
6947;SDS011;3513;47.664;9.162;2023-09-07T10:28:46;7.63;;;6.60;;
6947;SDS011;3513;47.664;9.162;2023-09-07T10:31:24;15.67;;;6.70;;
6947;SDS011;3513;47.664;9.162;2023-09-07T10:33:50;10.40;;;6.70;;
6947;SDS011;3513;47.664;9.162;2023-09-07T10:36:26;9.73;;;5.80;;
6947;SDS011;3513;47.664;9.162;2023-09-07T10:38:54;12.87;;;7.40;;
6947;SDS011;3513;47.664;9.162;2023-09-07T10:41:21;8.53;;;5.60;;
6947;SDS011;3513;47.664;9.162;2023-09-07T10:46:14;8.40;;;5.90;;
6947;SDS011;3513;47.664;9.162;2023-09-07T10:48:40;12.53;;;6.20;;
6947;SDS011;3513;47.664;9.162;2023-09-07T10:51:05;9.47;;;6.70;;
6947;SDS011;3513;47.664;9.162;2023-09-07T10:53:32;11.33;;;6.73;;
6947;SDS011;3513;47.664;9.162;2023-09-07T10:56:03;15.97;;;7.00;;
6947;SDS011;3513;47.664;9.162;2023-09-07T10:58:31;18.13;;;6.50;;
6947;SDS011;3513;47.664;9.162;2023-09-07T11:01:01;13.03;;;6.60;;
6947;SDS011;3513;47.664;9.162;2023-09-07T11:03:30;11.07;;;5.70;;
6947;SDS011;3513;47.664;9.162;2023-09-07T11:06:02;9.37;;;5.80;;
6947;SDS011;3513;47.664;9.162;2023-09-07T11:08:31;8.60;;;6.13;;
6947;SDS011;3513;47.664;9.162;2023-09-07T11:10:57;14.03;;;6.10;;
6947;SDS011;3513;47.664;9.162;2023-09-07T11:13:23;6.77;;;5.97;;
6947;SDS011;3513;47.664;9.162;2023-09-07T11:15:52;9.60;;;6.00;;
6947;SDS011;3513;47.664;9.162;2023-09-07T11:18:20;11.23;;;6.50;;
6947;SDS011;3513;47.664;9.162;2023-09-07T11:20:49;9.13;;;6.90;;
6947;SDS011;3513;47.664;9.162;2023-09-07T11:23:16;10.10;;;6.70;;
6947;SDS011;3513;47.664;9.162;2023-09-07T11:25:43;6.27;;;5.67;;
6947;SDS011;3513;47.664;9.162;2023-09-07T11:28:09;12.13;;;6.27;;
6947;SDS011;3513;47.664;9.162;2023-09-07T11:30:48;9.10;;;6.53;;
6947;SDS011;3513;47.664;9.162;2023-09-07T11:33:18;13.90;;;6.53;;
6947;SDS011;3513;47.664;9.162;2023-09-07T11:35:43;7.47;;;5.47;;
6947;SDS011;3513;47.664;9.162;2023-09-07T11:38:12;8.60;;;6.07;;
6947;SDS011;3513;47.664;9.162;2023-09-07T11:40:38;10.57;;;5.90;;
6947;SDS011;3513;47.664;9.162;2023-09-07T11:43:04;7.37;;;5.77;;
6947;SDS011;3513;47.664;9.162;2023-09-07T11:45:29;11.07;;;6.10;;
6947;SDS011;3513;47.664;9.162;2023-09-07T11:47:57;7.17;;;5.60;;
6947;SDS011;3513;47.664;9.162;2023-09-07T11:50:23;7.40;;;6.40;;
6947;SDS011;3513;47.664;9.162;2023-09-07T11:52:55;7.47;;;6.03;;
6947;SDS011;3513;47.664;9.162;2023-09-07T11:55:21;8.83;;;5.77;;
6947;SDS011;3513;47.664;9.162;2023-09-07T11:57:46;5.70;;;5.13;;
6947;SDS011;3513;47.664;9.162;2023-09-07T12:00:12;7.03;;;5.23;;
6947;SDS011;3513;47.664;9.162;2023-09-07T12:02:39;11.10;;;5.50;;
6947;SDS011;3513;47.664;9.162;2023-09-07T12:05:08;8.53;;;6.13;;
6947;SDS011;3513;47.664;9.162;2023-09-07T12:07:34;7.53;;;5.33;;
6947;SDS011;3513;47.664;9.162;2023-09-07T12:10:01;11.70;;;5.80;;
6947;SDS011;3513;47.664;9.162;2023-09-07T12:12:26;7.80;;;6.50;;
6947;SDS011;3513;47.664;9.162;2023-09-07T12:14:52;20.30;;;5.40;;
6947;SDS011;3513;47.664;9.162;2023-09-07T12:17:17;10.80;;;5.80;;
6947;SDS011;3513;47.664;9.162;2023-09-07T12:19:44;11.20;;;6.17;;
6947;SDS011;3513;47.664;9.162;2023-09-07T12:22:11;9.20;;;6.63;;
6947;SDS011;3513;47.664;9.162;2023-09-07T12:24:37;11.00;;;5.67;;
6947;SDS011;3513;47.664;9.162;2023-09-07T12:27:03;9.40;;;6.13;;
6947;SDS011;3513;47.664;9.162;2023-09-07T12:29:29;8.40;;;4.73;;
6947;SDS011;3513;47.664;9.162;2023-09-07T12:31:55;12.23;;;5.60;;
6947;SDS011;3513;47.664;9.162;2023-09-07T12:34:22;8.90;;;5.57;;
6947;SDS011;3513;47.664;9.162;2023-09-07T12:36:48;6.20;;;5.60;;
6947;SDS011;3513;47.664;9.162;2023-09-07T12:39:14;6.80;;;5.60;;
6947;SDS011;3513;47.664;9.162;2023-09-07T12:41:40;9.80;;;5.43;;
6947;SDS011;3513;47.664;9.162;2023-09-07T12:44:06;8.70;;;4.97;;
6947;SDS011;3513;47.664;9.162;2023-09-07T12:46:32;8.50;;;4.83;;
6947;SDS011;3513;47.664;9.162;2023-09-07T12:48:58;7.40;;;5.53;;
6947;SDS011;3513;47.664;9.162;2023-09-07T12:51:23;5.47;;;4.93;;
6947;SDS011;3513;47.664;9.162;2023-09-07T12:53:49;6.63;;;4.80;;
6947;SDS011;3513;47.664;9.162;2023-09-07T12:56:16;9.30;;;5.87;;
6947;SDS011;3513;47.664;9.162;2023-09-07T12:58:43;11.63;;;4.87;;
6947;SDS011;3513;47.664;9.162;2023-09-07T13:01:09;8.50;;;5.57;;
6947;SDS011;3513;47.664;9.162;2023-09-07T13:03:37;10.73;;;5.47;;
6947;SDS011;3513;47.664;9.162;2023-09-07T13:06:02;7.37;;;4.93;;
6947;SDS011;3513;47.664;9.162;2023-09-07T13:08:28;6.27;;;5.43;;
6947;SDS011;3513;47.664;9.162;2023-09-07T13:10:55;6.87;;;5.60;;
6947;SDS011;3513;47.664;9.162;2023-09-07T13:13:22;16.23;;;5.33;;
6947;SDS011;3513;47.664;9.162;2023-09-07T13:15:49;7.53;;;5.53;;
6947;SDS011;3513;47.664;9.162;2023-09-07T13:18:18;8.33;;;5.30;;
6947;SDS011;3513;47.664;9.162;2023-09-07T13:20:44;6.00;;;4.97;;
6947;SDS011;3513;47.664;9.162;2023-09-07T13:23:10;5.93;;;5.07;;
6947;SDS011;3513;47.664;9.162;2023-09-07T13:25:36;10.33;;;5.30;;
6947;SDS011;3513;47.664;9.162;2023-09-07T13:28:01;6.90;;;4.37;;
6947;SDS011;3513;47.664;9.162;2023-09-07T13:30:27;4.93;;;4.30;;
6947;SDS011;3513;47.664;9.162;2023-09-07T13:32:53;10.83;;;5.77;;
6947;SDS011;3513;47.664;9.162;2023-09-07T13:35:18;5.50;;;4.73;;
6947;SDS011;3513;47.664;9.162;2023-09-07T13:37:44;7.10;;;5.40;;
6947;SDS011;3513;47.664;9.162;2023-09-07T13:40:09;12.17;;;4.93;;
6947;SDS011;3513;47.664;9.162;2023-09-07T13:42:35;6.27;;;4.83;;
6947;SDS011;3513;47.664;9.162;2023-09-07T13:45:03;6.40;;;4.83;;
6947;SDS011;3513;47.664;9.162;2023-09-07T13:47:29;14.90;;;5.00;;
6947;SDS011;3513;47.664;9.162;2023-09-07T13:49:55;8.13;;;5.30;;
6947;SDS011;3513;47.664;9.162;2023-09-07T13:52:20;5.40;;;4.90;;
6947;SDS011;3513;47.664;9.162;2023-09-07T13:54:46;5.10;;;4.70;;
6947;SDS011;3513;47.664;9.162;2023-09-07T13:57:12;11.40;;;8.60;;
6947;SDS011;3513;47.664;9.162;2023-09-07T13:59:37;8.77;;;6.57;;
6947;SDS011;3513;47.664;9.162;2023-09-07T14:02:03;6.70;;;5.43;;
6947;SDS011;3513;47.664;9.162;2023-09-07T14:04:28;6.60;;;4.93;;
6947;SDS011;3513;47.664;9.162;2023-09-07T14:06:56;9.60;;;5.10;;
6947;SDS011;3513;47.664;9.162;2023-09-07T14:09:21;6.33;;;4.90;;
6947;SDS011;3513;47.664;9.162;2023-09-07T14:11:48;5.57;;;4.50;;
6947;SDS011;3513;47.664;9.162;2023-09-07T14:14:14;6.37;;;4.67;;
6947;SDS011;3513;47.664;9.162;2023-09-07T14:16:40;7.20;;;5.17;;
6947;SDS011;3513;47.664;9.162;2023-09-07T14:19:06;5.57;;;5.07;;
6947;SDS011;3513;47.664;9.162;2023-09-07T14:21:31;13.10;;;4.87;;
6947;SDS011;3513;47.664;9.162;2023-09-07T14:23:57;6.17;;;5.10;;
6947;SDS011;3513;47.664;9.162;2023-09-07T14:26:22;5.27;;;4.73;;
6947;SDS011;3513;47.664;9.162;2023-09-07T14:28:48;13.33;;;4.80;;
6947;SDS011;3513;47.664;9.162;2023-09-07T14:31:18;7.53;;;5.47;;
6947;SDS011;3513;47.664;9.162;2023-09-07T14:33:43;5.17;;;4.67;;
6947;SDS011;3513;47.664;9.162;2023-09-07T14:36:09;7.30;;;4.60;;
6947;SDS011;3513;47.664;9.162;2023-09-07T14:38:35;5.40;;;4.60;;
6947;SDS011;3513;47.664;9.162;2023-09-07T14:41:08;11.90;;;5.17;;
6947;SDS011;3513;47.664;9.162;2023-09-07T14:43:43;5.50;;;5.00;;
6947;SDS011;3513;47.664;9.162;2023-09-07T14:46:10;14.03;;;5.13;;
6947;SDS011;3513;47.664;9.162;2023-09-07T14:48:36;15.33;;;4.83;;
6947;SDS011;3513;47.664;9.162;2023-09-07T14:51:01;7.70;;;4.63;;
6947;SDS011;3513;47.664;9.162;2023-09-07T14:53:27;4.83;;;4.23;;
6947;SDS011;3513;47.664;9.162;2023-09-07T14:55:52;4.83;;;4.40;;
6947;SDS011;3513;47.664;9.162;2023-09-07T14:58:18;14.30;;;4.70;;
6947;SDS011;3513;47.664;9.162;2023-09-07T15:00:44;4.80;;;4.40;;
6947;SDS011;3513;47.664;9.162;2023-09-07T15:03:13;6.53;;;4.10;;